Flagstaff Pulliam Airport

Airport
ICAO code: 
KFLG
Summary
ICAO Region: 
NAM
Territory: 
Location: 
Flagstaff, Arizona,
Elevation: 
7014 ft
Coordinates: 
Aerial View: 
35° 8' 16.008" N, 111° 40' 18.012" W
Airport RE: 
Hot and High Operations
Metar
Observation
KFLG 021557Z 00000KT 10SM CLR 04/M06 A3035 RMK AO2 SLP269 T00391056
Station
Flagstaff, Flagstaff Pulliam Airport
Date/Time
2021-12-02 15:57:00
Wind direction
Wind speed
00 kts
Lowest cloud amount
n/a
Temperature
3.9°C
Dew point
-5.6°C
Humidity
49%
Weather condition
n/a

Description

Regional airport serving Flagstaff, Arizona and the surrounding area.

Climatology

Cold Semi-arid climate (Köppen climate classification BSk). - Hot, sometimes extremely hot summers and cold, sometimes very cold winters. Some snowfall during the winter. Areas featuring cold semi-arid climates are sometimes subject to major temperature swings during a 24 hour period. At Flagstaff, the combination of high altitude and low humidity provide mild weather conditions throughout most of the year, and the predominantly clear air radiates daytime heating effectively. Temperatures often fall precipitously after sunset throughout the year, and winter nights can be very cold.

Runways

Designator Length Width Surface Rops
3/21 2133 46 ASP Yes/Yes
Airport map: 
Aerial View: 

SKYbrary Partners:

Safety knowledge contributed by: